createdAt,value
2022-09-21T00:00:35.913Z,99.90
2022-09-21T00:05:34.993Z,99.90
2022-09-21T00:10:33.942Z,99.90
2022-09-21T00:15:33.232Z,99.90
2022-09-21T00:20:31.936Z,99.90
2022-09-21T00:25:30.953Z,99.90
2022-09-21T00:30:29.964Z,99.90
2022-09-21T00:35:28.968Z,99.90
2022-09-21T00:40:31.104Z,99.90
2022-09-21T00:45:30.795Z,99.90
2022-09-21T00:50:30.123Z,99.90
2022-09-21T00:55:29.233Z,99.90
2022-09-21T01:00:27.917Z,99.90
2022-09-21T01:05:27.037Z,99.90
2022-09-21T01:10:27.249Z,99.90
2022-09-21T01:15:25.984Z,99.90
2022-09-21T01:20:24.992Z,99.90
2022-09-21T01:25:24.388Z,99.90
2022-09-21T01:30:23.014Z,99.90
2022-09-21T01:35:22.525Z,99.90
2022-09-21T01:40:21.370Z,99.90
2022-09-21T01:45:20.073Z,99.90
2022-09-21T01:50:19.970Z,99.90
2022-09-21T01:55:19.117Z,99.90
2022-09-21T02:00:18.115Z,99.90
2022-09-21T02:05:17.124Z,99.90
2022-09-21T02:10:16.648Z,99.90
2022-09-21T02:15:16.449Z,99.90
2022-09-21T02:20:17.293Z,99.90
2022-09-21T02:25:16.044Z,99.90
2022-09-21T02:30:15.053Z,99.90
2022-09-21T02:35:15.342Z,99.90
2022-09-21T02:40:14.165Z,99.90
2022-09-21T02:45:13.169Z,99.90
2022-09-21T02:50:12.604Z,99.90
2022-09-21T02:55:11.964Z,99.90
2022-09-21T03:00:11.272Z,99.90
2022-09-21T03:05:10.006Z,99.90
2022-09-21T03:10:08.981Z,99.90
2022-09-21T03:15:07.985Z,99.90
2022-09-21T03:20:07.768Z,99.90
2022-09-21T03:25:08.925Z,99.90
2022-09-21T03:30:08.360Z,99.90
2022-09-21T03:35:08.012Z,99.90
2022-09-21T03:40:07.033Z,99.90
2022-09-21T03:45:05.980Z,99.90
2022-09-21T03:50:09.663Z,99.90
2022-09-21T03:55:06.393Z,99.90
2022-09-21T04:00:04.945Z,99.90
2022-09-21T04:05:04.048Z,99.90
2022-09-21T04:10:03.097Z,99.90
2022-09-21T04:15:02.069Z,99.90
2022-09-21T04:20:01.173Z,99.90
2022-09-21T04:25:01.089Z,99.90
2022-09-21T04:30:00.026Z,99.90
2022-09-21T04:34:59.144Z,99.90
2022-09-21T04:39:58.288Z,99.90
2022-09-21T04:44:57.145Z,99.90
2022-09-21T04:49:56.166Z,99.90
2022-09-21T04:54:56.099Z,99.90
2022-09-21T04:59:55.111Z,99.90
2022-09-21T05:04:54.207Z,99.90
2022-09-21T05:10:05.056Z,99.90
2022-09-21T05:15:04.106Z,99.90
2022-09-21T05:20:03.163Z,99.90
2022-09-21T05:25:02.135Z,99.90
2022-09-21T05:30:01.179Z,99.90
2022-09-21T05:35:00.167Z,99.90
2022-09-21T05:39:59.279Z,99.90
2022-09-21T05:44:59.080Z,99.90
2022-09-21T05:49:58.206Z,99.90
2022-09-21T05:54:57.243Z,99.90
2022-09-21T05:59:56.329Z,99.90
2022-09-21T06:04:55.052Z,99.90
2022-09-21T06:09:54.065Z,99.90
2022-09-21T06:14:53.076Z,99.90
2022-09-21T06:19:52.068Z,99.90
2022-09-21T06:24:51.094Z,99.90
2022-09-21T06:29:50.400Z,99.90
2022-09-21T06:34:49.890Z,99.90
2022-09-21T06:39:49.156Z,99.90
2022-09-21T06:44:48.159Z,99.90
2022-09-21T06:49:47.163Z,99.90
2022-09-21T06:54:46.186Z,99.90
2022-09-21T06:59:45.292Z,99.90
2022-09-21T07:04:44.172Z,99.90
2022-09-21T07:14:45.856Z,99.90
2022-09-21T07:19:45.193Z,99.90
2022-09-21T07:24:44.391Z,99.90
2022-09-21T07:29:43.180Z,99.90
2022-09-21T07:34:42.162Z,99.90
2022-09-21T07:39:41.188Z,99.90
2022-09-21T07:44:40.445Z,99.90
2022-09-21T07:49:39.199Z,99.90
2022-09-21T07:54:38.233Z,99.90
2022-09-21T07:59:37.227Z,99.90
2022-09-21T08:04:36.248Z,99.90
2022-09-21T08:09:35.253Z,99.90
2022-09-21T08:14:34.350Z,99.90
2022-09-21T08:19:34.167Z,99.90
2022-09-21T08:24:33.300Z,99.90
2022-09-21T08:29:32.560Z,99.90
2022-09-21T08:34:31.140Z,99.90
2022-09-21T08:39:30.632Z,99.90
2022-09-21T08:44:29.803Z,99.90
2022-09-21T08:49:29.190Z,99.70
2022-09-21T08:54:28.402Z,99.70
2022-09-21T08:59:27.289Z,99.50
2022-09-21T09:04:26.367Z,99.10
2022-09-21T09:09:25.320Z,99.30
2022-09-21T09:14:24.743Z,98.40
2022-09-21T09:19:23.256Z,99.00
2022-09-21T09:24:22.262Z,98.60
2022-09-21T09:29:21.267Z,98.30
2022-09-21T09:34:20.745Z,98.80
2022-09-21T09:39:19.299Z,99.20
2022-09-21T09:44:18.604Z,98.90
2022-09-21T09:49:17.326Z,97.30
2022-09-21T09:54:17.016Z,95.30
2022-09-21T09:59:16.412Z,96.40
2022-09-21T10:04:15.405Z,97.10
2022-09-21T10:09:14.444Z,97.40
2022-09-21T10:14:13.415Z,97.70
2022-09-21T10:19:12.407Z,96.40
2022-09-21T10:24:11.202Z,96.00
2022-09-21T10:29:10.240Z,96.70
2022-09-21T10:34:09.257Z,94.10
2022-09-21T10:39:08.379Z,93.50
2022-09-21T10:44:07.283Z,93.20
2022-09-21T10:49:06.323Z,93.50
2022-09-21T10:54:05.392Z,90.80
2022-09-21T10:59:04.297Z,91.20
2022-09-21T11:04:03.366Z,85.00
2022-09-21T11:09:02.321Z,88.30
2022-09-21T11:14:01.437Z,91.10
2022-09-21T11:19:00.229Z,76.80
2022-09-21T11:23:59.340Z,76.00
2022-09-21T11:28:59.530Z,79.80
2022-09-21T11:33:58.602Z,84.30
2022-09-21T11:38:57.500Z,84.80
2022-09-21T11:43:56.795Z,86.60
2022-09-21T11:48:59.264Z,85.50
2022-09-21T11:53:58.316Z,88.10
2022-09-21T11:58:57.392Z,87.00
2022-09-21T12:03:56.586Z,87.50
2022-09-21T12:08:55.348Z,90.50
2022-09-21T12:13:54.404Z,90.30
2022-09-21T12:18:53.388Z,89.50
2022-09-21T12:23:52.392Z,90.60
2022-09-21T12:28:51.400Z,91.00
2022-09-21T12:33:50.420Z,90.80
2022-09-21T12:38:49.445Z,90.20
2022-09-21T12:43:48.359Z,83.90
2022-09-21T12:48:47.591Z,88.60
2022-09-21T12:53:50.640Z,83.80
2022-09-21T12:58:48.906Z,84.60
2022-09-21T13:03:47.353Z,87.10
2022-09-21T13:08:46.746Z,84.30
2022-09-21T13:13:45.432Z,84.40
2022-09-21T13:18:44.297Z,86.80
2022-09-21T13:23:43.609Z,71.10
2022-09-21T13:28:42.203Z,74.10
2022-09-21T13:33:40.436Z,74.50
2022-09-21T13:38:42.604Z,73.70
2022-09-21T13:43:45.806Z,75.80
2022-09-21T13:48:44.405Z,79.90
2022-09-21T13:53:43.813Z,82.60
2022-09-21T13:58:42.424Z,74.20
2022-09-21T14:03:41.728Z,75.10
2022-09-21T14:08:40.705Z,76.00
2022-09-21T14:13:40.066Z,69.10
2022-09-21T14:18:39.467Z,73.00
2022-09-21T14:23:38.518Z,79.50
2022-09-21T14:28:37.816Z,78.70
2022-09-21T14:33:36.542Z,77.00
2022-09-21T14:38:35.332Z,64.90
2022-09-21T14:43:34.846Z,65.30
2022-09-21T14:48:34.053Z,68.50
2022-09-21T14:53:35.180Z,73.60
2022-09-21T14:58:34.481Z,66.30
2022-09-21T15:03:36.284Z,70.20
2022-09-21T15:08:53.627Z,72.10
2022-09-21T15:13:53.083Z,71.50
2022-09-21T15:18:52.394Z,76.30
2022-09-21T15:23:52.085Z,79.60
2022-09-21T15:29:08.812Z,73.30
2022-09-21T15:33:52.495Z,77.30
2022-09-21T15:38:52.203Z,78.10
2022-09-21T15:43:53.532Z,75.40
2022-09-21T15:48:52.448Z,75.70
2022-09-21T15:53:51.435Z,77.20
2022-09-21T15:58:50.453Z,81.50
2022-09-21T16:03:51.943Z,81.80
2022-09-21T16:08:51.104Z,83.10
2022-09-21T16:14:08.585Z,82.30
2022-09-21T16:19:07.615Z,84.20
2022-09-21T16:24:08.467Z,83.30
2022-09-21T16:29:07.846Z,85.40
2022-09-21T16:34:07.009Z,70.60
2022-09-21T16:39:11.567Z,75.20
2022-09-21T16:44:09.699Z,71.70
2022-09-21T16:49:08.603Z,75.70
2022-09-21T16:54:08.407Z,75.00
2022-09-21T16:59:07.739Z,79.70
2022-09-21T17:04:06.675Z,82.70
2022-09-21T17:09:05.541Z,84.20
2022-09-21T17:14:05.575Z,85.30
2022-09-21T17:19:04.803Z,87.10
2022-09-21T17:24:03.535Z,88.10
2022-09-21T17:29:05.209Z,89.40
2022-09-21T17:34:04.874Z,90.20
2022-09-21T17:39:03.900Z,90.50
2022-09-21T17:44:02.758Z,90.90
2022-09-21T17:49:01.463Z,91.40
2022-09-21T17:54:00.642Z,91.70
2022-09-21T17:58:59.493Z,92.10
2022-09-21T18:03:58.683Z,92.30
2022-09-21T18:08:57.682Z,92.60
2022-09-21T18:13:56.606Z,92.90
2022-09-21T18:18:55.539Z,93.10
2022-09-21T18:23:54.527Z,93.50
2022-09-21T18:28:57.695Z,93.80
2022-09-21T18:33:56.659Z,94.10
2022-09-21T18:38:56.543Z,94.30
2022-09-21T18:43:56.771Z,94.50
2022-09-21T18:48:55.535Z,94.70
2022-09-21T18:53:55.715Z,94.80
2022-09-21T18:58:56.468Z,95.10
2022-09-21T19:03:58.696Z,95.30
2022-09-21T19:08:57.854Z,95.60
2022-09-21T19:13:57.014Z,95.70
2022-09-21T19:18:55.572Z,95.90
2022-09-21T19:23:54.632Z,96.00
2022-09-21T19:28:53.758Z,96.20
2022-09-21T19:33:52.663Z,96.40
2022-09-21T19:38:51.575Z,96.60
2022-09-21T19:43:51.121Z,96.70
2022-09-21T19:48:50.555Z,96.90
2022-09-21T19:54:07.947Z,97.00
2022-09-21T19:59:24.011Z,97.10
2022-09-21T20:04:22.926Z,96.30
2022-09-21T20:09:21.600Z,97.00
2022-09-21T20:14:20.504Z,97.20
2022-09-21T20:19:19.707Z,97.10
2022-09-21T20:24:19.407Z,97.20
2022-09-21T20:29:19.272Z,97.40
2022-09-21T20:34:18.582Z,97.50
2022-09-21T20:39:17.583Z,97.40
2022-09-21T20:44:16.612Z,97.50
2022-09-21T20:49:15.730Z,97.60
2022-09-21T20:54:14.656Z,97.70
2022-09-21T20:59:14.569Z,97.80
2022-09-21T21:04:13.723Z,97.90
2022-09-21T21:09:12.697Z,98.00
2022-09-21T21:14:11.709Z,98.00
2022-09-21T21:19:10.609Z,98.00
2022-09-21T21:24:27.881Z,98.00
2022-09-21T21:29:26.768Z,98.00
2022-09-21T21:34:25.772Z,98.00
2022-09-21T21:39:24.597Z,98.20
2022-09-21T21:44:23.806Z,98.20
2022-09-21T21:49:22.819Z,98.30
2022-09-21T21:54:21.889Z,98.20
2022-09-21T21:59:20.845Z,98.20
2022-09-21T22:04:20.988Z,98.20
2022-09-21T22:09:21.816Z,98.20
2022-09-21T22:14:21.846Z,98.40
2022-09-21T22:19:20.805Z,98.40
2022-09-21T22:24:20.689Z,98.50
2022-09-21T22:29:19.821Z,98.70
2022-09-21T22:34:19.032Z,98.70
2022-09-21T22:39:17.840Z,98.60
2022-09-21T22:44:16.657Z,98.70
2022-09-21T22:49:15.661Z,98.70
2022-09-21T22:54:14.884Z,98.70
2022-09-21T22:59:13.967Z,98.70
2022-09-21T23:04:12.734Z,98.60
2022-09-21T23:09:11.695Z,98.60
2022-09-21T23:14:10.725Z,98.70
2022-09-21T23:19:11.981Z,98.70
2022-09-21T23:24:10.785Z,98.80
2022-09-21T23:29:11.481Z,98.80
2022-09-21T23:34:13.923Z,98.60
2022-09-21T23:39:12.785Z,98.70
2022-09-21T23:44:11.765Z,98.90
2022-09-21T23:49:10.752Z,98.70
2022-09-21T23:54:10.292Z,98.70
2022-09-21T23:59:09.800Z,98.70
